Terminal Aerodrome Forecast
Issued by NWS

Home | Current Version | Previous Version | Text Only | Print | Product List | Glossary On
Versions: 1 2 3 4 5 6 7 8 9 10 11 12 13 14 15 16 17 18 19 20 21 22 23 24 25 26 27 28 29 30 31 32 33 34 35 36 37 38 39 40 41 42 43 44 45 46 47 48 49 50
177
FTUS45 KBOU 282324
TAFAPA
TAF
KAPA 282324Z 2900/2924 36013KT P6SM SCT080 SCT120
     FM290100 04013KT P6SM SCT080 BKN120
      TEMPO 2901/2904 VRB20G35KT -TSRA BKN070CB
     FM290400 12011KT P6SM VCTS SCT070CB BKN120
     FM290700 17008KT P6SM SCT120
     FM291100 15006KT P6SM SCT010 SCT030
     FM291500 36006KT P6SM SCT010 BKN030
     FM291700 04008KT P6SM SCT030 SCT080
     FM292000 12010KT P6SM SCT060 BKN080 PROB30 2922/2924 -TSRA
      BKN060CB=

USA.gov is the U.S. government's official web portal to all federal, state and local government web resources and services.